Time;durP1;ratioP1;P1;durP2;ratioP2;P2;SDS_P1;SDS_P2;PMS_P1;PMS_P2;Temp;Humidity;BMP_temperature;BMP_pressure;BME280_temperature;BME280_humidity;BME280_pressure;Samples;Min_cycle;Max_cycle;Signal;HPM_P1;HPM_P2
2022/11/11 00:01:58;;;;;;;40.60;8.07;;;;;;;;;;6178698;28;20058;-90
2022/11/11 00:05:18;;;;;;;26.30;8.95;;;;;;;;;;6170747;28;20416;-91
2022/11/11 00:08:39;;;;;;;23.60;7.28;;;;;;;;;;6195883;28;20066;-89
2022/11/11 00:11:59;;;;;;;16.65;6.50;;;;;;;;;;6178469;28;20055;-90
2022/11/11 00:15:20;;;;;;;14.50;5.80;;;;;;;;;;6180096;28;20050;-90
2022/11/11 00:26:00;;;;;;;16.13;6.57;;;;;;;;;;6180148;28;20043;-89
2022/11/11 00:29:45;;;;;;;22.50;7.65;;;;;;;;;;6183846;28;20431;-91
2022/11/11 00:33:06;;;;;;;28.90;7.95;;;;;;;;;;6186846;28;20050;-89
2022/11/11 00:36:26;;;;;;;22.42;8.40;;;;;;;;;;6181425;28;20050;-89
2022/11/11 00:39:46;;;;;;;24.00;8.18;;;;;;;;;;6181291;28;20069;-89
2022/11/11 00:43:06;;;;;;;18.35;6.95;;;;;;;;;;6180597;28;20050;-88
2022/11/11 00:53:52;;;;;;;19.38;7.95;;;;;;;;;;6185833;28;20050;-90
2022/11/11 00:57:13;;;;;;;14.02;7.53;;;;;;;;;;6181281;28;20050;-88
2022/11/11 01:00:33;;;;;;;18.77;6.63;;;;;;;;;;6213658;28;20046;-89
2022/11/11 01:03:54;;;;;;;14.05;6.22;;;;;;;;;;6175345;28;20466;-88
2022/11/11 01:07:14;;;;;;;15.18;7.20;;;;;;;;;;6180960;28;20215;-89
2022/11/11 01:10:40;;;;;;;13.88;6.30;;;;;;;;;;6180525;28;20042;-90
2022/11/11 01:14:03;;;;;;;17.50;6.10;;;;;;;;;;6200875;28;20093;-89
2022/11/11 01:17:23;;;;;;;21.55;6.18;;;;;;;;;;6177457;28;20046;-88
2022/11/11 01:20:44;;;;;;;15.00;6.22;;;;;;;;;;6184604;28;20058;-89
2022/11/11 01:24:05;;;;;;;16.00;5.97;;;;;;;;;;6178707;28;20062;-90
2022/11/11 01:27:25;;;;;;;31.98;5.72;;;;;;;;;;6186001;28;20058;-89
2022/11/11 01:30:46;;;;;;;26.17;6.47;;;;;;;;;;6190478;28;20046;-89
2022/11/11 01:34:06;;;;;;;26.23;6.95;;;;;;;;;;6185052;28;20058;-88
2022/11/11 01:37:26;;;;;;;19.58;5.95;;;;;;;;;;6183413;28;20149;-89
2022/11/11 01:40:48;;;;;;;17.92;5.57;;;;;;;;;;6179020;28;20050;-89
2022/11/11 01:44:11;;;;;;;23.42;7.45;;;;;;;;;;6181368;28;20496;-88
2022/11/11 01:49:17;;;;;;;15.80;6.68;;;;;;;;;;6179202;28;20512;-90
2022/11/11 01:51:38;;;;;;;37.65;9.80;;;;;;;;;;6180574;28;20050;-90
2022/11/11 01:55:12;;;;;;;28.23;8.57;;;;;;;;;;6180047;28;20038;-89
2022/11/11 01:58:33;;;;;;;34.13;10.50;;;;;;;;;;6180983;28;20046;-89
2022/11/11 02:01:53;;;;;;;15.05;4.63;;;;;;;;;;6187120;28;20100;-89
2022/11/11 02:08:54;;;;;;;12.38;4.90;;;;;;;;;;6181430;28;20520;-89
2022/11/11 02:15:54;;;;;;;8.75;3.70;;;;;;;;;;6184371;28;20039;-89
2022/11/11 02:19:19;;;;;;;15.55;4.70;;;;;;;;;;6181958;28;20050;-89
2022/11/11 02:22:57;;;;;;;12.45;5.50;;;;;;;;;;6179464;28;20050;-89
2022/11/11 02:26:18;;;;;;;17.25;6.70;;;;;;;;;;6177152;28;20050;-89
2022/11/11 02:29:40;;;;;;;18.13;5.95;;;;;;;;;;6197678;28;20137;-89
2022/11/11 02:33:00;;;;;;;17.27;5.93;;;;;;;;;;6218674;27;20051;-90
2022/11/11 02:36:21;;;;;;;17.27;6.30;;;;;;;;;;6182769;28;20046;-90
2022/11/11 02:39:44;;;;;;;18.95;6.85;;;;;;;;;;6182992;28;20042;-90
2022/11/11 02:43:25;;;;;;;12.45;5.70;;;;;;;;;;6204958;28;20076;-90
2022/11/11 02:46:47;;;;;;;16.92;5.90;;;;;;;;;;6186461;28;20042;-90
2022/11/11 02:50:08;;;;;;;13.77;5.57;;;;;;;;;;6181349;28;20058;-91
2022/11/11 02:53:28;;;;;;;15.73;4.85;;;;;;;;;;6180038;28;20061;-88
2022/11/11 02:57:07;;;;;;;19.67;5.72;;;;;;;;;;6190923;28;20046;-90
2022/11/11 03:00:28;;;;;;;20.35;5.07;;;;;;;;;;6195286;28;20507;-89
2022/11/11 03:03:48;;;;;;;12.85;4.80;;;;;;;;;;6184666;28;20130;-90
2022/11/11 03:07:08;;;;;;;17.13;6.15;;;;;;;;;;6187784;28;20949;-88
2022/11/11 03:10:28;;;;;;;14.82;6.13;;;;;;;;;;6177746;28;20047;-89
2022/11/11 03:13:49;;;;;;;30.85;6.40;;;;;;;;;;6178843;28;20125;-88
2022/11/11 03:21:03;;;;;;;16.20;5.03;;;;;;;;;;6177301;28;20042;-90
2022/11/11 03:28:25;;;;;;;17.23;5.13;;;;;;;;;;6180905;28;20059;-89
2022/11/11 03:31:45;;;;;;;13.73;5.35;;;;;;;;;;6177565;28;20050;-89
2022/11/11 03:35:06;;;;;;;21.23;5.90;;;;;;;;;;6178056;28;20133;-89
2022/11/11 03:38:26;;;;;;;18.95;6.53;;;;;;;;;;6177077;28;20047;-89
2022/11/11 03:41:46;;;;;;;25.92;6.40;;;;;;;;;;6178895;28;20416;-89
2022/11/11 03:45:07;;;;;;;15.15;4.78;;;;;;;;;;6192776;28;20427;-89
2022/11/11 03:48:30;;;;;;;19.80;4.90;;;;;;;;;;6196037;28;20110;-89
2022/11/11 03:51:51;;;;;;;13.90;4.88;;;;;;;;;;6178855;28;20042;-90
2022/11/11 03:55:11;;;;;;;15.10;4.68;;;;;;;;;;6179452;28;20137;-88
2022/11/11 03:58:31;;;;;;;17.17;5.25;;;;;;;;;;6192211;28;20054;-89
2022/11/11 04:16:41;;;;;;;26.10;6.10;;;;;;;;;;6179255;28;20117;-89
2022/11/11 04:23:40;;;;;;;15.00;6.15;;;;;;;;;;6184400;28;20107;-89
2022/11/11 04:27:03;;;;;;;28.48;6.50;;;;;;;;;;6184187;28;20062;-90
2022/11/11 04:30:24;;;;;;;14.45;5.20;;;;;;;;;;6181083;28;20054;-90
2022/11/11 04:33:44;;;;;;;14.45;6.10;;;;;;;;;;6183460;28;20446;-90
2022/11/11 04:37:04;;;;;;;26.33;6.22;;;;;;;;;;6172245;28;20038;-88
2022/11/11 04:48:02;;;;;;;14.32;5.95;;;;;;;;;;6174423;28;20042;-89
2022/11/11 04:52:25;;;;;;;20.98;5.72;;;;;;;;;;6181470;28;20077;-88
2022/11/11 04:58:43;;;;;;;17.52;6.50;;;;;;;;;;6182562;28;20070;-89
2022/11/11 05:09:39;;;;;;;17.10;5.32;;;;;;;;;;6185495;28;20439;-89
2022/11/11 05:27:42;;;;;;;11.32;5.28;;;;;;;;;;6182194;28;20055;-90
2022/11/11 05:31:02;;;;;;;20.88;5.93;;;;;;;;;;6192109;28;20073;-88
2022/11/11 05:34:23;;;;;;;21.73;6.03;;;;;;;;;;6186085;28;20047;-90
2022/11/11 05:38:18;;;;;;;15.10;4.50;;;;;;;;;;6187660;28;20519;-89
2022/11/11 05:41:24;;;;;;;23.65;4.65;;;;;;;;;;6182585;28;20042;-90
2022/11/11 05:44:45;;;;;;;11.57;4.55;;;;;;;;;;6183059;28;20058;-89
2022/11/11 05:48:05;;;;;;;16.77;4.43;;;;;;;;;;6183380;28;20046;-89
2022/11/11 05:51:28;;;;;;;13.25;5.25;;;;;;;;;;6188741;28;20133;-89
2022/11/11 05:54:48;;;;;;;14.77;4.82;;;;;;;;;;6178243;28;20042;-89
2022/11/11 05:58:09;;;;;;;13.48;5.40;;;;;;;;;;6183319;28;20058;-89
2022/11/11 06:01:30;;;;;;;18.38;5.70;;;;;;;;;;6181083;28;20035;-90
2022/11/11 06:04:53;;;;;;;16.75;4.20;;;;;;;;;;6176617;28;20054;-90
2022/11/11 06:08:13;;;;;;;12.10;5.28;;;;;;;;;;6177378;28;20046;-90
2022/11/11 06:11:34;;;;;;;26.85;9.98;;;;;;;;;;6169625;28;20055;-90
2022/11/11 06:14:57;;;;;;;32.13;13.00;;;;;;;;;;6200716;22;20433;-85
2022/11/11 06:18:18;;;;;;;28.63;8.27;;;;;;;;;;6172575;28;20046;-86
2022/11/11 06:21:55;;;;;;;29.90;12.73;;;;;;;;;;6172009;28;20435;-86
2022/11/11 06:29:39;;;;;;;17.65;5.20;;;;;;;;;;6165938;28;20050;-88
2022/11/11 06:32:59;;;;;;;19.40;4.60;;;;;;;;;;6166338;28;20046;-88
2022/11/11 06:36:20;;;;;;;16.08;5.10;;;;;;;;;;6156077;28;20058;-88
2022/11/11 06:39:41;;;;;;;12.77;4.07;;;;;;;;;;6177460;28;20054;-89
2022/11/11 06:43:01;;;;;;;15.68;4.03;;;;;;;;;;6169611;28;20110;-88
2022/11/11 06:46:23;;;;;;;14.80;4.07;;;;;;;;;;6176258;28;20043;-89
2022/11/11 06:49:43;;;;;;;13.02;4.50;;;;;;;;;;6182222;28;20047;-88
2022/11/11 06:53:09;;;;;;;14.43;4.05;;;;;;;;;;6173692;28;20034;-88
2022/11/11 06:56:29;;;;;;;8.48;3.90;;;;;;;;;;6178521;28;20046;-88
2022/11/11 06:59:55;;;;;;;17.60;4.90;;;;;;;;;;6172185;28;20098;-88
2022/11/11 07:03:23;;;;;;;20.87;4.97;;;;;;;;;;6179950;28;20133;-87
2022/11/11 07:06:45;;;;;;;18.75;4.07;;;;;;;;;;6171543;28;20482;-88
2022/11/11 07:10:09;;;;;;;12.82;4.65;;;;;;;;;;6151564;28;20055;-86
2022/11/11 07:13:30;;;;;;;16.38;5.35;;;;;;;;;;6163008;28;20376;-86
2022/11/11 07:16:51;;;;;;;8.95;4.20;;;;;;;;;;6156766;28;20043;-87
2022/11/11 07:24:38;;;;;;;15.20;3.72;;;;;;;;;;6155325;28;20077;-86
2022/11/11 07:27:59;;;;;;;10.60;3.85;;;;;;;;;;6174200;28;20051;-87
2022/11/11 07:31:20;;;;;;;12.57;4.07;;;;;;;;;;6192877;28;20129;-87
2022/11/11 07:34:43;;;;;;;11.32;3.58;;;;;;;;;;6163563;28;20050;-87
2022/11/11 07:38:08;;;;;;;16.50;3.78;;;;;;;;;;6147574;28;20043;-88
2022/11/11 07:41:30;;;;;;;13.60;4.53;;;;;;;;;;6162490;28;20039;-88
2022/11/11 07:44:50;;;;;;;9.63;3.63;;;;;;;;;;6170730;28;20190;-87
2022/11/11 07:48:10;;;;;;;11.02;4.00;;;;;;;;;;6181836;28;20051;-88
2022/11/11 07:51:31;;;;;;;10.13;4.18;;;;;;;;;;6170376;28;20058;-88
2022/11/11 07:54:51;;;;;;;10.50;4.45;;;;;;;;;;6176764;28;20046;-88
2022/11/11 07:58:11;;;;;;;14.07;4.85;;;;;;;;;;6156328;28;20126;-90
2022/11/11 08:01:36;;;;;;;8.40;3.85;;;;;;;;;;6178223;28;20051;-91
2022/11/11 08:04:57;;;;;;;10.90;4.78;;;;;;;;;;6190202;28;20204;-89
2022/11/11 08:08:23;;;;;;;14.43;4.75;;;;;;;;;;6148404;28;20039;-88
2022/11/11 08:15:24;;;;;;;7.45;3.97;;;;;;;;;;6167266;28;20047;-89
2022/11/11 08:18:44;;;;;;;6.15;3.83;;;;;;;;;;6165633;28;20050;-88
2022/11/11 08:22:05;;;;;;;5.25;3.25;;;;;;;;;;6153931;28;20039;-87
2022/11/11 08:25:26;;;;;;;5.90;3.15;;;;;;;;;;6158363;28;20055;-89
2022/11/11 08:28:46;;;;;;;6.05;3.25;;;;;;;;;;6170430;28;20599;-88
2022/11/11 08:32:07;;;;;;;6.38;3.08;;;;;;;;;;6158588;28;20130;-88
2022/11/11 08:35:28;;;;;;;6.18;3.28;;;;;;;;;;6161953;28;20601;-88
2022/11/11 08:38:48;;;;;;;10.60;3.40;;;;;;;;;;6166581;28;20606;-88
2022/11/11 08:42:08;;;;;;;10.35;3.25;;;;;;;;;;6161759;28;20039;-87
2022/11/11 08:45:30;;;;;;;10.65;4.50;;;;;;;;;;6164089;28;20043;-88
2022/11/11 08:48:52;;;;;;;7.47;3.65;;;;;;;;;;6162690;28;20059;-87
2022/11/11 08:52:12;;;;;;;12.98;4.97;;;;;;;;;;6157578;28;20130;-87
2022/11/11 08:55:34;;;;;;;7.60;3.90;;;;;;;;;;6159781;28;20083;-87
2022/11/11 08:58:54;;;;;;;5.68;3.20;;;;;;;;;;6169219;28;20051;-88
2022/11/11 09:02:15;;;;;;;7.57;3.55;;;;;;;;;;6166289;28;20416;-87
2022/11/11 09:05:39;;;;;;;10.05;4.18;;;;;;;;;;6187507;28;20458;-86
2022/11/11 09:09:00;;;;;;;10.93;4.07;;;;;;;;;;6173937;28;20047;-85
2022/11/11 09:12:20;;;;;;;7.13;3.55;;;;;;;;;;6155581;28;20491;-86
2022/11/11 09:15:40;;;;;;;8.90;4.28;;;;;;;;;;6160876;28;20137;-86
2022/11/11 09:19:01;;;;;;;9.00;4.60;;;;;;;;;;6176081;28;20042;-88
2022/11/11 09:22:21;;;;;;;11.20;4.22;;;;;;;;;;6151139;28;20051;-86
2022/11/11 09:25:41;;;;;;;10.43;4.00;;;;;;;;;;6161432;28;20047;-86
2022/11/11 09:29:01;;;;;;;11.60;4.18;;;;;;;;;;6160119;28;20050;-86
2022/11/11 09:32:22;;;;;;;6.82;4.10;;;;;;;;;;6163842;28;20149;-86
2022/11/11 09:35:42;;;;;;;7.82;4.18;;;;;;;;;;6175117;28;20043;-86
2022/11/11 09:39:05;;;;;;;7.70;4.70;;;;;;;;;;6158076;28;20046;-85
2022/11/11 09:42:49;;;;;;;14.90;3.60;;;;;;;;;;6156668;28;20080;-85
2022/11/11 09:46:44;;;;;;;9.35;3.65;;;;;;;;;;6173495;28;20078;-85
2022/11/11 09:50:10;;;;;;;5.97;3.50;;;;;;;;;;6155535;28;20124;-86
2022/11/11 09:53:36;;;;;;;8.52;4.22;;;;;;;;;;6156508;28;20047;-86
2022/11/11 09:57:05;;;;;;;12.23;5.15;;;;;;;;;;6142092;28;20058;-88
2022/11/11 10:00:29;;;;;;;8.48;4.20;;;;;;;;;;6145312;28;20551;-86
2022/11/11 10:04:28;;;;;;;6.13;3.38;;;;;;;;;;6157919;28;20038;-86
2022/11/11 10:07:58;;;;;;;5.65;3.95;;;;;;;;;;6155905;28;20051;-86
2022/11/11 10:11:38;;;;;;;6.75;4.03;;;;;;;;;;6158283;28;20509;-86
2022/11/11 10:15:00;;;;;;;9.00;3.90;;;;;;;;;;6155577;28;20150;-86
2022/11/11 10:18:38;;;;;;;6.03;4.13;;;;;;;;;;6134538;28;20519;-87
2022/11/11 10:22:24;;;;;;;8.32;5.03;;;;;;;;;;6156639;28;20047;-86
2022/11/11 10:25:55;;;;;;;5.97;3.75;;;;;;;;;;6153295;28;20055;-87
2022/11/11 10:29:22;;;;;;;6.45;3.35;;;;;;;;;;6160822;28;20058;-87
2022/11/11 10:32:55;;;;;;;4.47;3.35;;;;;;;;;;6155442;28;20047;-87
2022/11/11 10:36:20;;;;;;;5.15;3.10;;;;;;;;;;6171400;28;20443;-85
2022/11/11 10:40:07;;;;;;;4.78;3.40;;;;;;;;;;6154581;28;20066;-87
2022/11/11 10:43:28;;;;;;;5.63;3.42;;;;;;;;;;6155688;28;20039;-87
2022/11/11 10:47:14;;;;;;;8.02;3.60;;;;;;;;;;6158472;28;20047;-85
2022/11/11 10:50:39;;;;;;;4.65;3.53;;;;;;;;;;6155932;28;20039;-85
2022/11/11 10:54:10;;;;;;;6.53;4.10;;;;;;;;;;6159616;28;20047;-86
2022/11/11 10:57:45;;;;;;;7.55;3.75;;;;;;;;;;6160454;28;20050;-87
2022/11/11 11:01:09;;;;;;;5.88;3.25;;;;;;;;;;6162345;28;20073;-87
2022/11/11 11:04:44;;;;;;;4.90;3.22;;;;;;;;;;6171947;28;20051;-86
2022/11/11 11:08:13;;;;;;;4.45;2.80;;;;;;;;;;6158815;28;20130;-86
2022/11/11 11:11:58;;;;;;;3.70;2.90;;;;;;;;;;6158545;28;20066;-87
2022/11/11 11:15:23;;;;;;;5.43;3.17;;;;;;;;;;6157667;28;20137;-86
2022/11/11 11:23:40;;;;;;;5.93;2.85;;;;;;;;;;6136881;28;20046;-87
2022/11/11 11:27:05;;;;;;;4.00;2.60;;;;;;;;;;6157543;28;20512;-87
2022/11/11 11:30:26;;;;;;;4.07;2.78;;;;;;;;;;6158234;28;20051;-87
2022/11/11 11:33:55;;;;;;;3.50;2.70;;;;;;;;;;6173594;28;20046;-87
2022/11/11 11:37:16;;;;;;;4.55;2.90;;;;;;;;;;6160947;28;20781;-89
2022/11/11 11:40:52;;;;;;;3.67;2.78;;;;;;;;;;6159921;28;20043;-87
2022/11/11 11:44:26;;;;;;;3.60;2.45;;;;;;;;;;6153183;28;20050;-87
2022/11/11 11:47:53;;;;;;;6.10;2.95;;;;;;;;;;6163151;28;20572;-87
2022/11/11 11:51:46;;;;;;;6.75;2.92;;;;;;;;;;6157108;28;20121;-88
2022/11/11 11:55:22;;;;;;;4.28;2.60;;;;;;;;;;6147985;28;20054;-87
2022/11/11 11:59:01;;;;;;;7.93;3.17;;;;;;;;;;6152485;28;20043;-87
2022/11/11 12:02:44;;;;;;;6.10;2.47;;;;;;;;;;6145830;28;20043;-88
2022/11/11 12:06:29;;;;;;;11.10;3.72;;;;;;;;;;6153668;28;20047;-87
2022/11/11 12:10:02;;;;;;;4.75;2.60;;;;;;;;;;6150333;28;20121;-87
2022/11/11 12:14:05;;;;;;;4.38;2.60;;;;;;;;;;6158339;28;20140;-88
2022/11/11 12:17:51;;;;;;;3.85;2.00;;;;;;;;;;6109293;28;20044;-88
2022/11/11 12:21:16;;;;;;;5.50;2.40;;;;;;;;;;6090979;28;20052;-88
2022/11/11 12:24:58;;;;;;;4.65;3.38;;;;;;;;;;6135699;28;20054;-88
2022/11/11 12:28:18;;;;;;;4.90;3.10;;;;;;;;;;6118614;28;20052;-89
2022/11/11 12:32:16;;;;;;;5.13;3.10;;;;;;;;;;6073760;28;20048;-88
2022/11/11 12:35:54;;;;;;;4.45;2.92;;;;;;;;;;6087250;28;20052;-90
2022/11/11 12:39:39;;;;;;;4.20;3.20;;;;;;;;;;6083747;28;20056;-89
2022/11/11 12:43:24;;;;;;;4.05;3.00;;;;;;;;;;6093790;28;20577;-89
2022/11/11 12:46:53;;;;;;;6.35;2.83;;;;;;;;;;6095181;28;20127;-89
2022/11/11 12:50:36;;;;;;;4.25;3.45;;;;;;;;;;6087465;28;20052;-89
2022/11/11 12:54:26;;;;;;;5.85;3.97;;;;;;;;;;6076317;28;20130;-90
2022/11/11 12:58:16;;;;;;;5.70;2.90;;;;;;;;;;6086939;28;20044;-89
2022/11/11 13:01:56;;;;;;;5.40;3.55;;;;;;;;;;6089901;28;20044;-90
2022/11/11 13:05:29;;;;;;;5.38;3.60;;;;;;;;;;6088427;28;20040;-88
2022/11/11 13:09:14;;;;;;;5.15;3.22;;;;;;;;;;6090047;28;20048;-88
2022/11/11 13:13:07;;;;;;;3.80;3.08;;;;;;;;;;6085381;28;20052;-88
2022/11/11 13:16:27;;;;;;;5.05;2.80;;;;;;;;;;6092735;28;20048;-88
2022/11/11 13:19:53;;;;;;;4.20;2.90;;;;;;;;;;6073931;28;20578;-88
2022/11/11 13:23:13;;;;;;;4.05;2.55;;;;;;;;;;6086050;28;20040;-89
2022/11/11 13:26:39;;;;;;;6.72;3.10;;;;;;;;;;6089940;28;20048;-88
2022/11/11 13:30:25;;;;;;;7.78;3.90;;;;;;;;;;6095897;28;20044;-89
2022/11/11 13:33:52;;;;;;;14.40;5.95;;;;;;;;;;6090761;28;20048;-89
2022/11/11 13:37:29;;;;;;;6.28;3.22;;;;;;;;;;6094067;28;20068;-89
2022/11/11 13:40:53;;;;;;;6.43;3.58;;;;;;;;;;6093266;28;20064;-88
2022/11/11 13:44:21;;;;;;;6.30;2.63;;;;;;;;;;6094565;28;20049;-87
2022/11/11 13:47:46;;;;;;;4.65;2.97;;;;;;;;;;6090694;28;20107;-88
2022/11/11 13:51:26;;;;;;;4.10;3.20;;;;;;;;;;6101612;28;20044;-87
2022/11/11 13:54:58;;;;;;;6.03;3.20;;;;;;;;;;6107536;28;20056;-87
2022/11/11 13:58:30;;;;;;;4.70;3.00;;;;;;;;;;6098376;28;20043;-88
2022/11/11 14:02:13;;;;;;;5.38;3.03;;;;;;;;;;6115574;28;20036;-89
2022/11/11 14:05:33;;;;;;;5.95;3.35;;;;;;;;;;6088066;28;20071;-88
2022/11/11 14:08:56;;;;;;;7.50;4.22;;;;;;;;;;6089428;28;20536;-87
2022/11/11 14:12:40;;;;;;;14.45;5.43;;;;;;;;;;6097940;28;20052;-88
2022/11/11 14:16:00;;;;;;;8.82;4.45;;;;;;;;;;6074223;28;20048;-87
2022/11/11 14:19:20;;;;;;;17.48;11.23;;;;;;;;;;6080467;28;20044;-86
2022/11/11 14:22:42;;;;;;;16.50;7.97;;;;;;;;;;6085762;28;20044;-86
2022/11/11 14:26:05;;;;;;;24.15;11.85;;;;;;;;;;6095086;28;20511;-87
2022/11/11 14:29:34;;;;;;;13.85;7.22;;;;;;;;;;6077510;29;20048;-87
2022/11/11 14:33:14;;;;;;;18.83;10.05;;;;;;;;;;6088203;28;20056;-87
2022/11/11 14:36:47;;;;;;;14.38;7.80;;;;;;;;;;6088358;28;21356;-86
2022/11/11 14:40:27;;;;;;;14.32;8.07;;;;;;;;;;6094867;28;20052;-87
2022/11/11 14:43:47;;;;;;;18.88;8.32;;;;;;;;;;6092103;28;20044;-87
2022/11/11 14:47:07;;;;;;;12.52;6.57;;;;;;;;;;6105732;28;20068;-87
2022/11/11 14:50:30;;;;;;;8.75;5.40;;;;;;;;;;6153912;28;20048;-87
2022/11/11 14:53:52;;;;;;;12.13;5.47;;;;;;;;;;6077585;28;20407;-85
2022/11/11 14:57:20;;;;;;;8.90;5.25;;;;;;;;;;6095618;28;20052;-85
2022/11/11 15:00:52;;;;;;;8.30;5.25;;;;;;;;;;6094458;28;21079;-86
2022/11/11 15:04:13;;;;;;;12.75;6.07;;;;;;;;;;6086541;28;20502;-85
2022/11/11 15:08:09;;;;;;;15.55;6.80;;;;;;;;;;6086035;28;20043;-85
2022/11/11 15:11:43;;;;;;;13.48;6.85;;;;;;;;;;6091818;28;20052;-85
2022/11/11 15:15:33;;;;;;;14.02;7.78;;;;;;;;;;6093978;28;20040;-85
2022/11/11 15:18:57;;;;;;;24.20;12.05;;;;;;;;;;6099959;28;20048;-85
2022/11/11 15:22:17;;;;;;;17.38;8.65;;;;;;;;;;6088510;28;20063;-85
2022/11/11 15:26:05;;;;;;;38.47;17.00;;;;;;;;;;6093003;28;20048;-87
2022/11/11 15:29:28;;;;;;;17.10;8.35;;;;;;;;;;6088073;28;20052;-87
2022/11/11 15:33:13;;;;;;;16.03;7.20;;;;;;;;;;6089275;28;20048;-86
2022/11/11 15:36:49;;;;;;;15.77;7.65;;;;;;;;;;6091628;28;20626;-85
2022/11/11 15:40:21;;;;;;;17.42;7.50;;;;;;;;;;6103015;28;20068;-84
2022/11/11 15:43:41;;;;;;;22.50;9.60;;;;;;;;;;6094819;28;22382;-86
2022/11/11 15:47:02;;;;;;;42.28;16.88;;;;;;;;;;6099506;28;20135;-87
2022/11/11 15:50:23;;;;;;;38.38;14.73;;;;;;;;;;6089717;28;20048;-86
2022/11/11 15:53:46;;;;;;;23.90;11.57;;;;;;;;;;6083434;28;20511;-89
2022/11/11 15:57:25;;;;;;;19.30;8.10;;;;;;;;;;6092096;28;20048;-87
2022/11/11 16:00:46;;;;;;;19.60;9.50;;;;;;;;;;6099484;28;20056;-85
2022/11/11 16:04:08;;;;;;;19.48;8.75;;;;;;;;;;6103441;28;20067;-87
2022/11/11 16:07:47;;;;;;;22.83;9.48;;;;;;;;;;6103779;28;20598;-86
2022/11/11 16:11:16;;;;;;;23.95;11.40;;;;;;;;;;6109865;28;20052;-87
2022/11/11 16:14:43;;;;;;;18.60;8.38;;;;;;;;;;6112580;28;20131;-87
2022/11/11 16:18:09;;;;;;;23.95;10.00;;;;;;;;;;6093822;28;20052;-87
2022/11/11 16:21:36;;;;;;;55.42;19.35;;;;;;;;;;6113906;28;20056;-87
2022/11/11 16:24:58;;;;;;;36.83;15.00;;;;;;;;;;6113228;28;20122;-87
2022/11/11 16:28:18;;;;;;;58.83;24.65;;;;;;;;;;6096738;28;20052;-86
2022/11/11 16:31:41;;;;;;;24.55;11.27;;;;;;;;;;6144048;28;20044;-86
2022/11/11 16:35:38;;;;;;;22.90;11.23;;;;;;;;;;6100938;28;21164;-86
2022/11/11 16:39:24;;;;;;;31.67;16.03;;;;;;;;;;6074345;28;20044;-84
2022/11/11 16:42:44;;;;;;;25.10;8.65;;;;;;;;;;6086423;28;20048;-82
2022/11/11 16:46:08;;;;;;;20.08;7.95;;;;;;;;;;6085712;28;20048;-83
2022/11/11 16:49:31;;;;;;;59.13;10.13;;;;;;;;;;6084149;28;20056;-84
2022/11/11 16:52:59;;;;;;;30.30;10.20;;;;;;;;;;6073695;28;20115;-84
2022/11/11 16:56:24;;;;;;;41.53;19.15;;;;;;;;;;6073026;28;20044;-83
2022/11/11 16:59:49;;;;;;;38.28;15.73;;;;;;;;;;6086728;28;20056;-83
2022/11/11 17:03:12;;;;;;;35.58;15.98;;;;;;;;;;6083661;28;20462;-82
2022/11/11 17:06:46;;;;;;;56.63;22.77;;;;;;;;;;6094707;28;20044;-81
2022/11/11 17:10:07;;;;;;;51.53;20.17;;;;;;;;;;6085522;28;20475;-81
2022/11/11 17:13:28;;;;;;;45.50;14.13;;;;;;;;;;6092144;28;20139;-81
2022/11/11 17:16:48;;;;;;;41.55;17.27;;;;;;;;;;6084537;28;20805;-81
2022/11/11 17:20:14;;;;;;;32.47;10.90;;;;;;;;;;6086597;28;20056;-81
2022/11/11 17:23:35;;;;;;;39.00;17.20;;;;;;;;;;6073181;28;20060;-81
2022/11/11 17:26:59;;;;;;;23.00;9.77;;;;;;;;;;6088791;28;20048;-81
2022/11/11 17:30:20;;;;;;;41.50;13.95;;;;;;;;;;6092253;28;20138;-82
2022/11/11 17:33:40;;;;;;;36.95;12.85;;;;;;;;;;6094107;28;20051;-81
2022/11/11 17:37:01;;;;;;;37.55;12.07;;;;;;;;;;6085044;28;20043;-82
2022/11/11 17:40:21;;;;;;;29.13;10.48;;;;;;;;;;6092907;28;20060;-81
2022/11/11 17:43:42;;;;;;;31.92;12.18;;;;;;;;;;6081909;28;20052;-81
2022/11/11 17:47:02;;;;;;;45.65;14.02;;;;;;;;;;6086050;28;20056;-82
2022/11/11 17:50:22;;;;;;;36.47;14.98;;;;;;;;;;6088738;28;20040;-81
2022/11/11 17:53:43;;;;;;;43.28;16.17;;;;;;;;;;6093881;28;20052;-82
2022/11/11 17:57:04;;;;;;;50.30;16.45;;;;;;;;;;6081959;28;20052;-81
2022/11/11 18:00:25;;;;;;;39.67;14.80;;;;;;;;;;6084263;28;20044;-81
2022/11/11 18:03:45;;;;;;;35.38;12.75;;;;;;;;;;6083750;28;20044;-81
2022/11/11 18:07:06;;;;;;;25.75;10.73;;;;;;;;;;6085010;28;20052;-81
2022/11/11 18:10:27;;;;;;;22.83;9.20;;;;;;;;;;6084018;28;20044;-80
2022/11/11 18:13:47;;;;;;;51.35;10.30;;;;;;;;;;6096615;28;20036;-82
2022/11/11 18:17:08;;;;;;;40.13;9.98;;;;;;;;;;6094690;28;20048;-82
2022/11/11 18:20:28;;;;;;;36.90;11.55;;;;;;;;;;6090754;28;20048;-83
2022/11/11 18:23:48;;;;;;;33.00;10.80;;;;;;;;;;6090109;28;20056;-82
2022/11/11 18:27:11;;;;;;;20.20;7.65;;;;;;;;;;6089478;28;20052;-82
2022/11/11 18:30:31;;;;;;;19.88;6.90;;;;;;;;;;6072891;28;20044;-82
2022/11/11 18:33:51;;;;;;;25.60;6.82;;;;;;;;;;6084528;28;20060;-81
2022/11/11 18:37:11;;;;;;;24.92;6.90;;;;;;;;;;6073067;28;20163;-82
2022/11/11 18:40:35;;;;;;;15.68;6.15;;;;;;;;;;6089132;28;20135;-84
2022/11/11 18:43:58;;;;;;;23.30;5.22;;;;;;;;;;6087487;28;20137;-83
2022/11/11 18:47:19;;;;;;;30.98;5.90;;;;;;;;;;6086295;28;20044;-83
2022/11/11 18:50:40;;;;;;;26.55;6.75;;;;;;;;;;6078205;28;20056;-83
2022/11/11 18:54:01;;;;;;;40.92;7.40;;;;;;;;;;6078376;28;20052;-84
2022/11/11 18:57:22;;;;;;;18.20;6.15;;;;;;;;;;6074404;28;20064;-84
2022/11/11 19:00:42;;;;;;;15.50;5.65;;;;;;;;;;6071546;28;20048;-84
2022/11/11 19:04:06;;;;;;;42.38;8.63;;;;;;;;;;6074996;28;20052;-84
2022/11/11 19:07:26;;;;;;;9.20;4.45;;;;;;;;;;6085407;28;20163;-84
2022/11/11 19:10:48;;;;;;;18.88;5.63;;;;;;;;;;6074714;28;20040;-83
2022/11/11 19:14:09;;;;;;;12.98;5.93;;;;;;;;;;6091501;28;20422;-83
2022/11/11 19:17:30;;;;;;;12.90;6.20;;;;;;;;;;6086789;28;20048;-87
2022/11/11 19:20:50;;;;;;;14.05;6.43;;;;;;;;;;6084628;28;20139;-86
2022/11/11 19:24:10;;;;;;;17.55;7.60;;;;;;;;;;6074658;28;20056;-84
2022/11/11 19:27:30;;;;;;;14.65;6.38;;;;;;;;;;6096738;28;20048;-83
2022/11/11 19:30:51;;;;;;;18.77;6.88;;;;;;;;;;6085881;28;21755;-84
2022/11/11 19:34:11;;;;;;;18.42;5.72;;;;;;;;;;6072709;28;20060;-86
2022/11/11 19:37:31;;;;;;;29.70;6.15;;;;;;;;;;6075527;28;20415;-85
2022/11/11 19:40:51;;;;;;;18.85;5.88;;;;;;;;;;6077888;28;20041;-83
2022/11/11 19:44:12;;;;;;;23.25;6.78;;;;;;;;;;6088818;28;20052;-82
2022/11/11 19:47:32;;;;;;;15.18;6.85;;;;;;;;;;6073509;28;20052;-85
2022/11/11 19:50:52;;;;;;;12.45;6.05;;;;;;;;;;6073988;28;20048;-86
2022/11/11 19:54:12;;;;;;;26.92;8.23;;;;;;;;;;6087053;28;20052;-84
2022/11/11 19:57:33;;;;;;;28.40;6.53;;;;;;;;;;6083602;28;20139;-83
2022/11/11 20:00:57;;;;;;;21.40;8.50;;;;;;;;;;6090459;28;20502;-86
2022/11/11 20:04:17;;;;;;;;;;;;;;;;;;6094042;28;20068;-83
2022/11/11 20:07:38;;;;;;;22.67;6.90;;;;;;;;;;6093273;28;20011;-84
2022/11/11 20:11:04;;;;;;;46.08;7.35;;;;;;;;;;6085693;28;20663;-84
2022/11/11 20:14:25;;;;;;;34.80;6.18;;;;;;;;;;6107740;28;20031;-85
2022/11/11 20:17:46;;;;;;;63.38;10.73;;;;;;;;;;6116406;28;20048;-85
2022/11/11 20:21:07;;;;;;;31.63;7.90;;;;;;;;;;6110358;28;20060;-85
2022/11/11 20:24:27;;;;;;;49.53;9.77;;;;;;;;;;6102361;28;20073;-86
2022/11/11 20:27:51;;;;;;;29.85;8.60;;;;;;;;;;6105744;28;20044;-85
2022/11/11 20:31:15;;;;;;;34.38;6.88;;;;;;;;;;6086915;28;20056;-85
2022/11/11 20:34:35;;;;;;;;;;;;;;;;;;6088399;28;20052;-86
2022/11/11 20:37:56;;;;;;;10.63;5.10;;;;;;;;;;6077273;28;19962;-86
2022/11/11 20:41:18;;;;;;;28.40;5.63;;;;;;;;;;6099588;28;20056;-85
2022/11/11 20:44:39;;;;;;;29.58;7.00;;;;;;;;;;6088829;28;20052;-86
2022/11/11 20:47:59;;;;;;;22.33;11.20;;;;;;;;;;6086887;28;20475;-85
2022/11/11 20:51:22;;;;;;;20.17;5.97;;;;;;;;;;6090610;28;20052;-85
2022/11/11 20:54:42;;;;;;;18.00;5.93;;;;;;;;;;6072496;28;20052;-85
2022/11/11 20:58:02;;;;;;;19.70;7.32;;;;;;;;;;6077104;28;20131;-85
2022/11/11 21:01:25;;;;;;;12.55;6.22;;;;;;;;;;6084824;28;20803;-85
2022/11/11 21:04:46;;;;;;;22.03;7.40;;;;;;;;;;6088723;28;20499;-86
2022/11/11 21:08:06;;;;;;;17.80;5.03;;;;;;;;;;6080921;28;20052;-85
2022/11/11 21:11:27;;;;;;;15.23;5.22;;;;;;;;;;6093563;28;20067;-85
2022/11/11 21:14:48;;;;;;;10.80;4.68;;;;;;;;;;6074955;28;20076;-85
2022/11/11 21:18:08;;;;;;;16.20;6.82;;;;;;;;;;6076983;28;20055;-82
2022/11/11 21:21:31;;;;;;;17.58;5.30;;;;;;;;;;6073254;28;20135;-83
2022/11/11 21:24:51;;;;;;;13.73;5.00;;;;;;;;;;6074856;28;20065;-84
2022/11/11 21:28:11;;;;;;;17.65;5.55;;;;;;;;;;6082294;28;20048;-82
2022/11/11 21:31:37;;;;;;;25.73;6.13;;;;;;;;;;6091973;28;20052;-85
2022/11/11 21:34:57;;;;;;;13.32;4.50;;;;;;;;;;6084101;28;20060;-85
2022/11/11 21:38:21;;;;;;;19.23;4.80;;;;;;;;;;6071656;28;20052;-85
2022/11/11 21:41:42;;;;;;;49.22;12.07;;;;;;;;;;6102171;28;20494;-84
2022/11/11 21:45:03;;;;;;;77.47;20.75;;;;;;;;;;6084149;28;20743;-85
2022/11/11 21:48:24;;;;;;;21.15;6.05;;;;;;;;;;6084030;28;20147;-85
2022/11/11 21:51:50;;;;;;;21.25;4.38;;;;;;;;;;6091306;28;20050;-86
2022/11/11 21:55:10;;;;;;;;;;;;;;;;;;6066397;28;20419;-84
2022/11/11 21:58:31;;;;;;;9.13;4.80;;;;;;;;;;6071623;28;19931;-82